sensor_id;sensor_type;location;lat;lon;timestamp;pressure;altitude;pressure_sealevel;temperature;humidity
44198;BME280;30157;55.512;37.764;2023-02-10T00:01:44;101101.69;;;-3.41;79.18
44198;BME280;30157;55.512;37.764;2023-02-10T00:04:12;100942.16;;;-4.31;79.30
44198;BME280;30157;55.512;37.764;2023-02-10T00:06:38;101021.59;;;-3.85;79.25
44198;BME280;30157;55.512;37.764;2023-02-10T00:09:04;101029.06;;;-3.86;78.98
44198;BME280;30157;55.512;37.764;2023-02-10T00:11:29;101097.47;;;-3.41;79.30
44198;BME280;30157;55.512;37.764;2023-02-10T00:14:16;100984.28;;;-4.10;78.97
44198;BME280;30157;55.512;37.764;2023-02-10T00:16:42;101079.41;;;-3.45;79.29
44198;BME280;30157;55.512;37.764;2023-02-10T00:19:07;101063.41;;;-3.56;79.94
44198;BME280;30157;55.512;37.764;2023-02-10T00:21:33;100989.69;;;-3.93;79.96
44198;BME280;30157;55.512;37.764;2023-02-10T00:23:59;101070.78;;;-3.47;80.16
44198;BME280;30157;55.512;37.764;2023-02-10T00:26:25;101078.53;;;-3.46;79.65
44198;BME280;30157;55.512;37.764;2023-02-10T00:28:51;100871.19;;;-4.67;79.67
44198;BME280;30157;55.512;37.764;2023-02-10T00:31:17;101039.22;;;-3.63;79.25
44198;BME280;30157;55.512;37.764;2023-02-10T00:33:47;100932.47;;;-4.25;79.11
44198;BME280;30157;55.512;37.764;2023-02-10T00:36:13;101046.28;;;-3.59;77.84
44198;BME280;30157;55.512;37.764;2023-02-10T00:38:41;100825.66;;;-4.77;77.26
44198;BME280;30157;55.512;37.764;2023-02-10T00:41:09;100919.78;;;-4.37;76.49
44198;BME280;30157;55.512;37.764;2023-02-10T00:43:35;100940.50;;;-4.19;76.42
44198;BME280;30157;55.512;37.764;2023-02-10T00:46:05;101026.66;;;-3.61;75.90
44198;BME280;30157;55.512;37.764;2023-02-10T00:48:32;101024.47;;;-3.68;75.50
44198;BME280;30157;55.512;37.764;2023-02-10T00:50:57;100919.00;;;-4.24;75.58
44198;BME280;30157;55.512;37.764;2023-02-10T00:53:23;101027.31;;;-3.52;75.41
44198;BME280;30157;55.512;37.764;2023-02-10T00:55:49;100926.06;;;-4.08;75.50
44198;BME280;30157;55.512;37.764;2023-02-10T00:58:15;101004.25;;;-3.67;75.76
44198;BME280;30157;55.512;37.764;2023-02-10T01:00:41;101022.91;;;-3.55;75.84
44198;BME280;30157;55.512;37.764;2023-02-10T01:03:07;101019.38;;;-3.57;76.25
44198;BME280;30157;55.512;37.764;2023-02-10T01:05:32;100919.13;;;-4.11;76.68
44198;BME280;30157;55.512;37.764;2023-02-10T01:07:58;100935.78;;;-4.02;76.47
44198;BME280;30157;55.512;37.764;2023-02-10T01:10:26;100885.94;;;-4.26;77.16
44198;BME280;30157;55.512;37.764;2023-02-10T01:12:52;100995.31;;;-3.74;77.22
44198;BME280;30157;55.512;37.764;2023-02-10T01:15:18;100994.22;;;-3.65;77.89
44198;BME280;30157;55.512;37.764;2023-02-10T01:17:43;100942.19;;;-3.96;78.48
44198;BME280;30157;55.512;37.764;2023-02-10T01:20:11;100985.94;;;-3.63;77.95
44198;BME280;30157;55.512;37.764;2023-02-10T01:22:36;100925.09;;;-3.98;77.41
44198;BME280;30157;55.512;37.764;2023-02-10T01:25:04;100988.56;;;-3.61;76.73
44198;BME280;30157;55.512;37.764;2023-02-10T01:27:30;100947.56;;;-3.79;77.11
44198;BME280;30157;55.512;37.764;2023-02-10T01:29:55;100966.28;;;-3.65;76.98
44198;BME280;30157;55.512;37.764;2023-02-10T01:32:21;100924.09;;;-3.89;76.89
44198;BME280;30157;55.512;37.764;2023-02-10T01:34:46;100953.16;;;-3.72;76.84
44198;BME280;30157;55.512;37.764;2023-02-10T01:37:12;100946.09;;;-3.76;76.37
44198;BME280;30157;55.512;37.764;2023-02-10T01:39:38;100987.16;;;-3.58;76.61
44198;BME280;30157;55.512;37.764;2023-02-10T01:42:03;100972.38;;;-3.63;75.84
44198;BME280;30157;55.512;37.764;2023-02-10T01:46:55;100973.91;;;-3.65;76.17
44198;BME280;30157;55.512;37.764;2023-02-10T01:49:30;100938.63;;;-3.86;76.33
44198;BME280;30157;55.512;37.764;2023-02-10T01:52:08;100968.63;;;-3.68;75.91
44198;BME280;30157;55.512;37.764;2023-02-10T01:54:45;100948.69;;;-3.88;75.84
44198;BME280;30157;55.512;37.764;2023-02-10T01:57:12;100924.53;;;-3.94;75.96
44198;BME280;30157;55.512;37.764;2023-02-10T01:59:39;100903.25;;;-4.08;75.92
44198;BME280;30157;55.512;37.764;2023-02-10T02:02:07;100887.91;;;-4.22;75.99
44198;BME280;30157;55.512;37.764;2023-02-10T02:04:49;100722.78;;;-5.11;76.08
44198;BME280;30157;55.512;37.764;2023-02-10T02:07:23;100901.72;;;-4.06;76.28
44198;BME280;30157;55.512;37.764;2023-02-10T02:09:51;100920.88;;;-3.98;76.57
44198;BME280;30157;55.512;37.764;2023-02-10T02:12:24;100954.28;;;-3.80;76.76
44198;BME280;30157;55.512;37.764;2023-02-10T02:15:02;100908.66;;;-4.03;76.61
44198;BME280;30157;55.512;37.764;2023-02-10T02:17:44;100792.53;;;-4.68;76.39
44198;BME280;30157;55.512;37.764;2023-02-10T02:29:06;100930.25;;;-3.85;76.42
44198;BME280;30157;55.512;37.764;2023-02-10T02:31:52;100920.34;;;-3.94;77.04
44198;BME280;30157;55.512;37.764;2023-02-10T02:37:19;100854.00;;;-4.24;76.61
44198;BME280;30157;55.512;37.764;2023-02-10T02:39:43;100876.47;;;-4.05;77.00
44198;BME280;30157;55.512;37.764;2023-02-10T02:44:46;100870.50;;;-4.05;76.92
44198;BME280;30157;55.512;37.764;2023-02-10T02:47:17;100903.69;;;-3.90;77.34
44198;BME280;30157;55.512;37.764;2023-02-10T02:50:08;100723.56;;;-4.88;77.17
44198;BME280;30157;55.512;37.764;2023-02-10T03:01:19;100864.53;;;-4.06;77.64
44198;BME280;30157;55.512;37.764;2023-02-10T03:03:52;100830.06;;;-4.27;77.07
44198;BME280;30157;55.512;37.764;2023-02-10T03:06:18;100872.16;;;-4.06;76.87
44198;BME280;30157;55.512;37.764;2023-02-10T03:08:44;100837.34;;;-4.20;77.25
44198;BME280;30157;55.512;37.764;2023-02-10T03:11:10;100821.13;;;-4.34;77.08
44198;BME280;30157;55.512;37.764;2023-02-10T03:13:35;100866.09;;;-4.08;77.32
44198;BME280;30157;55.512;37.764;2023-02-10T03:16:01;100861.13;;;-4.06;76.71
44198;BME280;30157;55.512;37.764;2023-02-10T03:18:29;100711.47;;;-4.92;77.02
44198;BME280;30157;55.512;37.764;2023-02-10T03:20:55;100720.72;;;-4.93;76.94
44198;BME280;30157;55.512;37.764;2023-02-10T03:23:21;100856.28;;;-4.15;76.71
44198;BME280;30157;55.512;37.764;2023-02-10T03:25:46;100830.28;;;-4.24;77.18
44198;BME280;30157;55.512;37.764;2023-02-10T03:28:12;100838.31;;;-4.18;77.21
44198;BME280;30157;55.512;37.764;2023-02-10T03:30:38;100840.84;;;-4.18;77.33
44198;BME280;30157;55.512;37.764;2023-02-10T03:33:04;100823.66;;;-4.22;77.16
44198;BME280;30157;55.512;37.764;2023-02-10T03:35:35;100825.75;;;-4.28;77.47
44198;BME280;30157;55.512;37.764;2023-02-10T03:38:01;100837.34;;;-4.20;77.48
44198;BME280;30157;55.512;37.764;2023-02-10T03:40:26;100829.50;;;-4.23;77.59
44198;BME280;30157;55.512;37.764;2023-02-10T03:42:52;100714.75;;;-4.81;77.74
44198;BME280;30157;55.512;37.764;2023-02-10T03:45:18;100510.72;;;-5.99;78.09
44198;BME280;30157;55.512;37.764;2023-02-10T03:47:43;100770.69;;;-4.43;78.33
44198;BME280;30157;55.512;37.764;2023-02-10T03:50:09;100768.16;;;-4.43;78.10
44198;BME280;30157;55.512;37.764;2023-02-10T03:52:34;100671.41;;;-4.98;78.17
44198;BME280;30157;55.512;37.764;2023-02-10T03:55:00;100655.09;;;-5.01;78.30
44198;BME280;30157;55.512;37.764;2023-02-10T03:57:26;100639.47;;;-5.08;78.40
44198;BME280;30157;55.512;37.764;2023-02-10T03:59:51;100643.22;;;-5.02;78.39
44198;BME280;30157;55.512;37.764;2023-02-10T04:02:17;100673.78;;;-4.87;78.28
44198;BME280;30157;55.512;37.764;2023-02-10T04:04:43;100765.91;;;-4.26;78.79
44198;BME280;30157;55.512;37.764;2023-02-10T04:07:08;100626.94;;;-5.06;78.59
44198;BME280;30157;55.512;37.764;2023-02-10T04:09:34;100679.19;;;-4.71;78.77
44198;BME280;30157;55.512;37.764;2023-02-10T04:12:00;100724.06;;;-4.45;78.70
44198;BME280;30157;55.512;37.764;2023-02-10T04:14:25;100617.38;;;-5.10;78.46
44198;BME280;30157;55.512;37.764;2023-02-10T04:16:51;100740.47;;;-4.28;78.27
44198;BME280;30157;55.512;37.764;2023-02-10T04:19:17;100755.66;;;-4.16;78.36
44198;BME280;30157;55.512;37.764;2023-02-10T04:21:43;100687.19;;;-4.53;78.21
44198;BME280;30157;55.512;37.764;2023-02-10T04:24:08;100511.44;;;-5.53;78.51
44198;BME280;30157;55.512;37.764;2023-02-10T04:26:34;100741.53;;;-4.24;78.33
44198;BME280;30157;55.512;37.764;2023-02-10T04:29:00;100717.97;;;-4.35;78.31
44198;BME280;30157;55.512;37.764;2023-02-10T04:31:25;100633.72;;;-4.81;78.65
44198;BME280;30157;55.512;37.764;2023-02-10T04:33:51;100601.81;;;-5.03;78.13
44198;BME280;30157;55.512;37.764;2023-02-10T04:36:17;100738.69;;;-4.29;78.78
44198;BME280;30157;55.512;37.764;2023-02-10T04:38:42;100569.94;;;-5.13;78.22
44198;BME280;30157;55.512;37.764;2023-02-10T04:41:11;100692.03;;;-4.44;78.42
44198;BME280;30157;55.512;37.764;2023-02-10T04:43:36;100729.97;;;-4.20;78.58
44198;BME280;30157;55.512;37.764;2023-02-10T04:46:02;100598.28;;;-5.05;78.44
44198;BME280;30157;55.512;37.764;2023-02-10T04:48:29;100731.72;;;-4.19;78.25
44198;BME280;30157;55.512;37.764;2023-02-10T04:51:09;100735.94;;;-4.20;78.66
44198;BME280;30157;55.512;37.764;2023-02-10T04:53:36;100728.19;;;-4.22;78.48
44198;BME280;30157;55.512;37.764;2023-02-10T04:56:02;100733.16;;;-4.23;78.72
44198;BME280;30157;55.512;37.764;2023-02-10T04:58:30;100745.19;;;-4.20;78.45
44198;BME280;30157;55.512;37.764;2023-02-10T05:00:56;100742.53;;;-4.22;78.40
44198;BME280;30157;55.512;37.764;2023-02-10T05:03:23;100678.47;;;-4.57;78.82
44198;BME280;30157;55.512;37.764;2023-02-10T05:05:48;100735.59;;;-4.25;78.81
44198;BME280;30157;55.512;37.764;2023-02-10T05:08:17;100729.56;;;-4.27;78.78
44198;BME280;30157;55.512;37.764;2023-02-10T05:10:47;100716.88;;;-4.27;78.71
44198;BME280;30157;55.512;37.764;2023-02-10T05:13:13;100699.16;;;-4.39;78.80
44198;BME280;30157;55.512;37.764;2023-02-10T05:15:41;100703.22;;;-4.29;79.14
44198;BME280;30157;55.512;37.764;2023-02-10T05:18:07;100604.66;;;-4.98;78.90
44198;BME280;30157;55.512;37.764;2023-02-10T05:20:32;100718.28;;;-4.18;79.00
44198;BME280;30157;55.512;37.764;2023-02-10T05:22:58;100722.69;;;-4.16;78.85
44198;BME280;30157;55.512;37.764;2023-02-10T05:25:24;100599.34;;;-4.78;78.50
44198;BME280;30157;55.512;37.764;2023-02-10T05:27:49;100689.31;;;-4.34;79.02
44198;BME280;30157;55.512;37.764;2023-02-10T05:30:15;100707.47;;;-4.16;79.02
44198;BME280;30157;55.512;37.764;2023-02-10T05:32:41;100595.19;;;-4.89;78.65
44198;BME280;30157;55.512;37.764;2023-02-10T05:35:08;100707.03;;;-4.22;79.11
44198;BME280;30157;55.512;37.764;2023-02-10T05:37:34;100702.75;;;-4.23;79.30
44198;BME280;30157;55.512;37.764;2023-02-10T05:40:00;100677.56;;;-4.33;78.95
44198;BME280;30157;55.512;37.764;2023-02-10T05:42:26;100692.25;;;-4.16;78.93
44198;BME280;30157;55.512;37.764;2023-02-10T05:44:51;100639.03;;;-4.53;79.45
44198;BME280;30157;55.512;37.764;2023-02-10T05:47:17;100687.44;;;-4.25;79.23
44198;BME280;30157;55.512;37.764;2023-02-10T05:49:43;100649.34;;;-4.38;79.09
44198;BME280;30157;55.512;37.764;2023-02-10T05:52:08;100634.97;;;-4.51;79.34
44198;BME280;30157;55.512;37.764;2023-02-10T05:54:34;100619.03;;;-4.62;79.18
44198;BME280;30157;55.512;37.764;2023-02-10T05:57:00;100634.97;;;-4.51;79.56
44198;BME280;30157;55.512;37.764;2023-02-10T05:59:26;100671.19;;;-4.15;78.79
44198;BME280;30157;55.512;37.764;2023-02-10T06:01:52;100663.38;;;-3.93;77.76
44198;BME280;30157;55.512;37.764;2023-02-10T06:04:17;100611.59;;;-3.69;75.80
44198;BME280;30157;55.512;37.764;2023-02-10T06:06:43;100660.56;;;-2.50;73.30
44198;BME280;30157;55.512;37.764;2023-02-10T06:09:09;100663.03;;;-1.65;69.28
44198;BME280;30157;55.512;37.764;2023-02-10T06:11:34;100613.44;;;-0.95;67.62
44198;BME280;30157;55.512;37.764;2023-02-10T06:14:00;100649.75;;;-0.02;66.40
44198;BME280;30157;55.512;37.764;2023-02-10T06:16:27;100599.34;;;-0.06;62.26
44198;BME280;30157;55.512;37.764;2023-02-10T06:18:53;100544.50;;;-1.13;64.54
44198;BME280;30157;55.512;37.764;2023-02-10T06:21:19;100638.44;;;-2.38;69.27
44198;BME280;30157;55.512;37.764;2023-02-10T06:23:48;100642.78;;;-2.92;71.54
44198;BME280;30157;55.512;37.764;2023-02-10T06:26:14;100640.66;;;-3.39;73.25
44198;BME280;30157;55.512;37.764;2023-02-10T06:28:40;100610.94;;;-3.67;74.32
44198;BME280;30157;55.512;37.764;2023-02-10T06:31:06;100520.97;;;-4.24;74.51
44198;BME280;30157;55.512;37.764;2023-02-10T06:33:33;100471.13;;;-4.50;74.84
44198;BME280;30157;55.512;37.764;2023-02-10T06:36:02;100613.16;;;-3.72;74.97
44198;BME280;30157;55.512;37.764;2023-02-10T06:38:31;100478.44;;;-4.42;74.93
44198;BME280;30157;55.512;37.764;2023-02-10T06:40:58;100614.06;;;-3.71;75.45
44198;BME280;30157;55.512;37.764;2023-02-10T06:43:23;100477.97;;;-4.49;75.47
44198;BME280;30157;55.512;37.764;2023-02-10T06:45:49;100605.94;;;-3.79;75.21
44198;BME280;30157;55.512;37.764;2023-02-10T06:48:15;100604.16;;;-3.80;75.88
44198;BME280;30157;55.512;37.764;2023-02-10T06:50:42;100565.59;;;-4.14;76.05
44198;BME280;30157;55.512;37.764;2023-02-10T06:53:09;100575.25;;;-4.09;76.04
44198;BME280;30157;55.512;37.764;2023-02-10T06:55:35;100597.31;;;-4.08;76.61
44198;BME280;30157;55.512;37.764;2023-02-10T06:58:01;100595.19;;;-3.88;76.10
44198;BME280;30157;55.512;37.764;2023-02-10T07:00:31;100578.00;;;-1.22;68.15
44198;BME280;30157;55.512;37.764;2023-02-10T07:02:59;100540.31;;;-0.30;62.95
44198;BME280;30157;55.512;37.764;2023-02-10T07:05:25;100519.69;;;-0.85;64.24
44198;BME280;30157;55.512;37.764;2023-02-10T07:07:51;100428.34;;;-2.06;66.78
44198;BME280;30157;55.512;37.764;2023-02-10T07:10:19;100526.94;;;-0.92;64.88
44198;BME280;30157;55.512;37.764;2023-02-10T07:12:45;100419.19;;;0.53;58.73
44198;BME280;30157;55.512;37.764;2023-02-10T07:15:13;100386.50;;;-0.10;58.33
44198;BME280;30157;55.512;37.764;2023-02-10T07:17:42;100497.06;;;-0.62;62.52
44198;BME280;30157;55.512;37.764;2023-02-10T07:20:08;100503.38;;;-0.88;63.90
44198;BME280;30157;55.512;37.764;2023-02-10T07:22:34;100429.16;;;-0.60;62.52
44198;BME280;30157;55.512;37.764;2023-02-10T07:25:00;100360.91;;;-1.49;63.00
44198;BME280;30157;55.512;37.764;2023-02-10T07:27:25;100432.97;;;-1.19;63.77
44198;BME280;30157;55.512;37.764;2023-02-10T07:29:51;100454.38;;;-1.95;65.47
44198;BME280;30157;55.512;37.764;2023-02-10T07:32:16;100474.38;;;-2.31;67.40
44198;BME280;30157;55.512;37.764;2023-02-10T07:34:42;100458.97;;;-2.49;67.50
44198;BME280;30157;55.512;37.764;2023-02-10T07:37:08;100385.25;;;-3.22;68.86
44198;BME280;30157;55.512;37.764;2023-02-10T07:39:35;100431.69;;;-3.10;69.63
44198;BME280;30157;55.512;37.764;2023-02-10T07:42:03;100388.97;;;-3.59;70.12
44198;BME280;30157;55.512;37.764;2023-02-10T07:44:45;100400.47;;;-3.22;69.77
44198;BME280;30157;55.512;37.764;2023-02-10T07:47:11;100453.06;;;-2.48;68.88
44198;BME280;30157;55.512;37.764;2023-02-10T07:49:36;100450.97;;;-2.55;68.66
44198;BME280;30157;55.512;37.764;2023-02-10T07:52:02;100438.63;;;-2.34;68.07
44198;BME280;30157;55.512;37.764;2023-02-10T07:54:28;100305.75;;;-2.76;67.06
44198;BME280;30157;55.512;37.764;2023-02-10T07:56:55;100330.81;;;-0.37;60.57
44198;BME280;30157;55.512;37.764;2023-02-10T07:59:21;100331.13;;;1.68;56.01
44198;BME280;30157;55.512;37.764;2023-02-10T08:01:47;100391.06;;;3.13;51.92
44198;BME280;30157;55.512;37.764;2023-02-10T08:04:13;100406.34;;;4.75;49.00
44198;BME280;30157;55.512;37.764;2023-02-10T08:06:39;100365.50;;;5.18;45.74
44198;BME280;30157;55.512;37.764;2023-02-10T08:09:05;100391.47;;;4.63;46.61
44198;BME280;30157;55.512;37.764;2023-02-10T08:11:31;100312.03;;;2.52;51.15
44198;BME280;30157;55.512;37.764;2023-02-10T08:13:57;100309.56;;;1.41;53.30
44198;BME280;30157;55.512;37.764;2023-02-10T08:16:23;100394.09;;;2.31;52.47
44198;BME280;30157;55.512;37.764;2023-02-10T08:18:48;100385.72;;;1.90;53.97
44198;BME280;30157;55.512;37.764;2023-02-10T08:21:14;100414.41;;;0.80;55.05
44198;BME280;30157;55.512;37.764;2023-02-10T08:23:40;100290.66;;;-0.77;58.31
44198;BME280;30157;55.512;37.764;2023-02-10T08:26:11;100409.03;;;-0.72;60.16
44198;BME280;30157;55.512;37.764;2023-02-10T08:28:38;100388.59;;;-0.90;60.65
44198;BME280;30157;55.512;37.764;2023-02-10T08:31:06;100401.13;;;-0.42;59.56
44198;BME280;30157;55.512;37.764;2023-02-10T08:33:36;100391.38;;;1.20;55.23
44198;BME280;30157;55.512;37.764;2023-02-10T08:36:06;100354.59;;;1.16;54.68
44198;BME280;30157;55.512;37.764;2023-02-10T08:38:32;100346.44;;;1.90;51.39
44198;BME280;30157;55.512;37.764;2023-02-10T08:40:58;100363.00;;;1.98;51.16
44198;BME280;30157;55.512;37.764;2023-02-10T08:43:25;100384.59;;;3.24;49.69
44198;BME280;30157;55.512;37.764;2023-02-10T08:45:51;100355.13;;;2.63;50.30
44198;BME280;30157;55.512;37.764;2023-02-10T08:48:17;100384.44;;;4.27;48.64
44198;BME280;30157;55.512;37.764;2023-02-10T08:50:44;100245.56;;;2.81;47.15
44198;BME280;30157;55.512;37.764;2023-02-10T08:53:09;100335.72;;;2.69;49.51
44198;BME280;30157;55.512;37.764;2023-02-10T08:55:36;100256.09;;;2.41;49.36
44198;BME280;30157;55.512;37.764;2023-02-10T08:58:02;100343.03;;;2.12;50.35
44198;BME280;30157;55.512;37.764;2023-02-10T09:00:28;100332.78;;;2.59;50.48
44198;BME280;30157;55.512;37.764;2023-02-10T09:02:54;100256.75;;;2.59;48.58
44198;BME280;30157;55.512;37.764;2023-02-10T09:05:19;100353.25;;;3.33;49.37
44198;BME280;30157;55.512;37.764;2023-02-10T09:07:45;100358.00;;;2.48;51.35
44198;BME280;30157;55.512;37.764;2023-02-10T09:10:12;100351.28;;;3.00;49.81
44198;BME280;30157;55.512;37.764;2023-02-10T09:12:39;100322.31;;;2.30;50.89
44198;BME280;30157;55.512;37.764;2023-02-10T09:15:05;100231.53;;;0.87;53.17
44198;BME280;30157;55.512;37.764;2023-02-10T09:17:31;100326.72;;;1.43;54.08
44198;BME280;30157;55.512;37.764;2023-02-10T09:19:56;100305.03;;;1.33;53.40
44198;BME280;30157;55.512;37.764;2023-02-10T09:22:22;100189.72;;;-0.73;56.33
44198;BME280;30157;55.512;37.764;2023-02-10T09:24:48;100276.97;;;-0.43;57.27
44198;BME280;30157;55.512;37.764;2023-02-10T09:27:16;100305.16;;;-0.40;57.71
44198;BME280;30157;55.512;37.764;2023-02-10T09:29:42;100255.34;;;-0.69;57.75
44198;BME280;30157;55.512;37.764;2023-02-10T09:32:07;100252.94;;;-1.02;58.12
44198;BME280;30157;55.512;37.764;2023-02-10T09:34:33;100299.91;;;-0.79;58.20
44198;BME280;30157;55.512;37.764;2023-02-10T09:36:59;100136.22;;;-1.80;58.80
44198;BME280;30157;55.512;37.764;2023-02-10T09:39:30;100291.63;;;-0.75;58.94
44198;BME280;30157;55.512;37.764;2023-02-10T09:45:09;100255.63;;;-0.99;58.46
44198;BME280;30157;55.512;37.764;2023-02-10T09:47:49;100251.22;;;-1.20;58.33
44198;BME280;30157;55.512;37.764;2023-02-10T09:50:30;100238.63;;;-1.16;58.74
44198;BME280;30157;55.512;37.764;2023-02-10T09:53:36;100112.53;;;-1.95;57.71
44198;BME280;30157;55.512;37.764;2023-02-10T09:55:57;100215.53;;;-1.38;58.26
44198;BME280;30157;55.512;37.764;2023-02-10T09:58:32;100097.38;;;-2.10;58.14
44198;BME280;30157;55.512;37.764;2023-02-10T10:01:14;100123.50;;;-1.80;59.07
44198;BME280;30157;55.512;37.764;2023-02-10T10:03:55;100240.66;;;-1.27;58.48
44198;BME280;30157;55.512;37.764;2023-02-10T10:06:27;100207.22;;;-1.33;58.54
44198;BME280;30157;55.512;37.764;2023-02-10T10:09:01;100214.66;;;-1.38;58.79
44198;BME280;30157;55.512;37.764;2023-02-10T10:14:08;100168.38;;;-1.47;58.35
44198;BME280;30157;55.512;37.764;2023-02-10T10:35:43;100087.94;;;-1.78;57.92
44198;BME280;30157;55.512;37.764;2023-02-10T10:38:22;100217.97;;;-1.05;57.88
44198;BME280;30157;55.512;37.764;2023-02-10T10:40:51;100188.69;;;-1.31;58.07
44198;BME280;30157;55.512;37.764;2023-02-10T10:43:24;100209.97;;;-1.12;58.85
44198;BME280;30157;55.512;37.764;2023-02-10T10:46:04;100161.25;;;-1.55;58.05
44198;BME280;30157;55.512;37.764;2023-02-10T10:48:32;100124.91;;;-1.69;58.34
44198;BME280;30157;55.512;37.764;2023-02-10T10:51:01;100172.09;;;-1.41;58.34
44198;BME280;30157;55.512;37.764;2023-02-10T10:56:12;100143.00;;;-1.28;58.85
44198;BME280;30157;55.512;37.764;2023-02-10T10:58:40;100131.22;;;-1.44;59.05
44198;BME280;30157;55.512;37.764;2023-02-10T11:01:08;100168.03;;;-1.19;58.73
44198;BME280;30157;55.512;37.764;2023-02-10T11:03:34;100097.34;;;-1.59;58.37
44198;BME280;30157;55.512;37.764;2023-02-10T11:08:45;100136.03;;;-1.32;58.06
44198;BME280;30157;55.512;37.764;2023-02-10T11:11:15;100135.91;;;-1.33;57.55
44198;BME280;30157;55.512;37.764;2023-02-10T11:13:53;100130.75;;;-1.35;57.95
44198;BME280;30157;55.512;37.764;2023-02-10T11:16:21;100130.03;;;-1.32;57.68
44198;BME280;30157;55.512;37.764;2023-02-10T11:18:58;100132.50;;;-1.34;57.97
44198;BME280;30157;55.512;37.764;2023-02-10T11:21:38;100116.19;;;-1.38;57.26
44198;BME280;30157;55.512;37.764;2023-02-10T11:24:22;100089.56;;;-1.62;57.64
44198;BME280;30157;55.512;37.764;2023-02-10T11:27:05;100114.63;;;-1.36;57.76
44198;BME280;30157;55.512;37.764;2023-02-10T11:29:39;100091.41;;;-1.42;56.69
44198;BME280;30157;55.512;37.764;2023-02-10T11:32:05;99987.69;;;-2.00;57.53
44198;BME280;30157;55.512;37.764;2023-02-10T11:34:44;100095.69;;;-1.41;57.54
44198;BME280;30157;55.512;37.764;2023-02-10T11:37:33;100094.38;;;-1.32;57.41
44198;BME280;30157;55.512;37.764;2023-02-10T11:40:05;100098.38;;;-1.38;56.99
44198;BME280;30157;55.512;37.764;2023-02-10T11:42:41;100085.38;;;-1.44;57.45
44198;BME280;30157;55.512;37.764;2023-02-10T11:45:16;100028.91;;;-1.89;56.60
44198;BME280;30157;55.512;37.764;2023-02-10T11:47:42;100102.31;;;-1.26;57.51
44198;BME280;30157;55.512;37.764;2023-02-10T11:50:21;100096.56;;;-1.22;56.96
44198;BME280;30157;55.512;37.764;2023-02-10T11:52:48;100076.06;;;-1.43;57.59
44198;BME280;30157;55.512;37.764;2023-02-10T11:55:14;99925.16;;;-2.13;57.63
44198;BME280;30157;55.512;37.764;2023-02-10T12:01:15;100032.84;;;-1.60;56.82
44198;BME280;30157;55.512;37.764;2023-02-10T12:06:41;100063.97;;;-1.29;56.85
44198;BME280;30157;55.512;37.764;2023-02-10T12:17:28;100039.69;;;-1.41;56.33
44198;BME280;30157;55.512;37.764;2023-02-10T12:20:25;100030.59;;;-1.36;56.31
44198;BME280;30157;55.512;37.764;2023-02-10T12:23:24;100044.03;;;-1.38;56.42
44198;BME280;30157;55.512;37.764;2023-02-10T12:32:02;100022.47;;;-1.09;54.24
44198;BME280;30157;55.512;37.764;2023-02-10T12:34:43;99814.00;;;-2.33;54.40
44198;BME280;30157;55.512;37.764;2023-02-10T12:45:40;99992.75;;;-1.08;54.42
44198;BME280;30157;55.512;37.764;2023-02-10T12:47:58;99995.53;;;-1.04;54.28
44198;BME280;30157;55.512;37.764;2023-02-10T12:53:22;100014.34;;;-1.00;54.46
44198;BME280;30157;55.512;37.764;2023-02-10T12:58:46;100000.94;;;-0.96;54.28
44198;BME280;30157;55.512;37.764;2023-02-10T13:03:54;99895.41;;;-1.60;54.47
44198;BME280;30157;55.512;37.764;2023-02-10T13:09:04;99927.75;;;-1.75;54.59
44198;BME280;30157;55.512;37.764;2023-02-10T13:14:21;99845.97;;;-2.39;55.31
44198;BME280;30157;55.512;37.764;2023-02-10T13:16:53;100001.13;;;-1.48;55.82
44198;BME280;30157;55.512;37.764;2023-02-10T13:19:39;99984.09;;;-1.49;55.83
44198;BME280;30157;55.512;37.764;2023-02-10T13:27:55;99979.16;;;-1.64;56.08
44198;BME280;30157;55.512;37.764;2023-02-10T13:33:22;99670.09;;;-3.58;56.83
44198;BME280;30157;55.512;37.764;2023-02-10T13:35:50;99975.13;;;-1.79;57.12
44198;BME280;30157;55.512;37.764;2023-02-10T13:38:20;99950.69;;;-1.93;57.57
44198;BME280;30157;55.512;37.764;2023-02-10T13:40:51;99926.63;;;-2.18;58.15
44198;BME280;30157;55.512;37.764;2023-02-10T13:43:24;99931.41;;;-2.24;58.40
44198;BME280;30157;55.512;37.764;2023-02-10T13:45:53;99907.56;;;-2.44;58.33
44198;BME280;30157;55.512;37.764;2023-02-10T13:48:32;99975.09;;;-2.15;58.82
44198;BME280;30157;55.512;37.764;2023-02-10T13:51:06;99927.91;;;-2.44;58.83
44198;BME280;30157;55.512;37.764;2023-02-10T14:06:47;99694.97;;;-3.85;58.96
44198;BME280;30157;55.512;37.764;2023-02-10T14:09:33;99862.53;;;-2.81;59.46
44198;BME280;30157;55.512;37.764;2023-02-10T14:12:02;99946.28;;;-2.32;58.87
44198;BME280;30157;55.512;37.764;2023-02-10T14:14:29;99975.09;;;-2.15;59.36
44198;BME280;30157;55.512;37.764;2023-02-10T14:17:05;99971.66;;;-2.15;59.04
44198;BME280;30157;55.512;37.764;2023-02-10T14:19:37;99944.53;;;-2.33;58.72
44198;BME280;30157;55.512;37.764;2023-02-10T14:22:06;99949.53;;;-2.34;58.94
44198;BME280;30157;55.512;37.764;2023-02-10T14:24:44;99967.53;;;-2.31;58.87
44198;BME280;30157;55.512;37.764;2023-02-10T14:27:13;99983.00;;;-2.27;59.57
44198;BME280;30157;55.512;37.764;2023-02-10T14:29:44;99979.59;;;-2.27;59.67
44198;BME280;30157;55.512;37.764;2023-02-10T14:32:15;99839.50;;;-3.02;59.22
44198;BME280;30157;55.512;37.764;2023-02-10T14:37:21;99831.63;;;-3.07;59.13
44198;BME280;30157;55.512;37.764;2023-02-10T14:39:53;99929.84;;;-2.57;59.77
44198;BME280;30157;55.512;37.764;2023-02-10T14:42:20;99965.06;;;-2.30;59.46
44198;BME280;30157;55.512;37.764;2023-02-10T14:44:54;99902.59;;;-2.59;59.29
44198;BME280;30157;55.512;37.764;2023-02-10T14:47:24;99949.78;;;-2.30;59.95
44198;BME280;30157;55.512;37.764;2023-02-10T14:49:54;99939.09;;;-2.41;59.79
44198;BME280;30157;55.512;37.764;2023-02-10T14:52:24;99948.91;;;-2.30;60.34
44198;BME280;30157;55.512;37.764;2023-02-10T14:54:50;99908.94;;;-2.51;59.97